Time;durP1;ratioP1;P1;durP2;ratioP2;P2;SDS_P1;SDS_P2;PMS_P1;PMS_P2;Temp;Humidity;BMP_temperature;BMP_pressure;BME280_temperature;BME280_humidity;BME280_pressure;Samples;Min_cycle;Max_cycle;Signal;HPM_P1;HPM_P2
2023/08/01 00:02:04;;;;;;;;;;;20.00;74.20;;;;;;5113207;28;20298;-65
2023/08/01 00:04:29;;;;;;;;;;;20.00;74.20;;;;;;5129075;27;20378;-65
2023/08/01 00:06:55;;;;;;;;;;;20.00;74.30;;;;;;5112997;28;20393;-66
2023/08/01 00:09:20;;;;;;;;;;;20.00;74.20;;;;;;5095018;28;19920;-65
2023/08/01 00:11:46;;;;;;;;;;;20.00;74.20;;;;;;5112802;28;19935;-65
2023/08/01 00:14:11;;;;;;;;;;;20.00;74.20;;;;;;5112768;28;19924;-65
2023/08/01 00:16:37;;;;;;;;;;;20.00;74.20;;;;;;5112679;28;19926;-65
2023/08/01 00:19:02;;;;;;;;;;;20.00;74.20;;;;;;5128538;28;19924;-65
2023/08/01 00:21:30;;;;;;;;;;;20.00;74.20;;;;;;5094495;28;20362;-66
2023/08/01 00:23:56;;;;;;;;;;;20.00;74.20;;;;;;5094583;28;20007;-66
2023/08/01 00:26:21;;;;;;;;;;;20.00;74.20;;;;;;5128864;28;19967;-65
2023/08/01 00:28:47;;;;;;;;;;;20.00;74.20;;;;;;5112733;28;20370;-66
2023/08/01 00:31:12;;;;;;;;;;;20.00;74.20;;;;;;5094657;28;19923;-65
2023/08/01 00:33:38;;;;;;;;;;;20.00;74.20;;;;;;5112919;28;19965;-65
2023/08/01 00:36:08;;;;;;;;;;;20.00;74.20;;;;;;5112699;28;19920;-65
2023/08/01 00:38:34;;;;;;;;;;;20.00;74.20;;;;;;5094384;28;19931;-65
2023/08/01 00:40:59;;;;;;;;;;;20.00;74.20;;;;;;5112768;28;19920;-65
2023/08/01 00:43:25;;;;;;;;;;;19.90;74.10;;;;;;5094774;28;19969;-65
2023/08/01 00:45:51;;;;;;;;;;;19.90;74.10;;;;;;5112515;28;19994;-65
2023/08/01 00:48:18;;;;;;;;;;;20.00;74.20;;;;;;5112523;28;20277;-65
2023/08/01 00:50:44;;;;;;;;;;;19.90;74.10;;;;;;5112781;28;19920;-65
2023/08/01 00:53:09;;;;;;;;;;;19.90;74.20;;;;;;5094474;28;20375;-66
2023/08/01 00:55:35;;;;;;;;;;;19.90;74.10;;;;;;5112585;28;19920;-66
2023/08/01 00:58:01;;;;;;;;;;;19.90;74.10;;;;;;5112366;28;19946;-65
2023/08/01 01:00:26;;;;;;;;;;;19.90;74.10;;;;;;5112362;28;19920;-65
2023/08/01 01:02:52;;;;;;;;;;;19.90;74.10;;;;;;5112218;28;19919;-65
2023/08/01 01:05:18;;;;;;;;;;;20.00;74.20;;;;;;5094467;28;19919;-66
2023/08/01 01:07:44;;;;;;;;;;;19.90;74.10;;;;;;5112457;28;19920;-65
2023/08/01 01:10:09;;;;;;;;;;;20.00;74.10;;;;;;5094406;28;20409;-65
2023/08/01 01:12:35;;;;;;;;;;;19.90;74.10;;;;;;5094355;28;19920;-64
2023/08/01 01:15:00;;;;;;;;;;;19.90;74.10;;;;;;5112310;28;19920;-65
2023/08/01 01:17:26;;;;;;;;;;;19.90;74.10;;;;;;5111984;28;20120;-65
2023/08/01 01:19:51;;;;;;;;;;;19.90;74.10;;;;;;5093934;28;19923;-65
2023/08/01 01:22:18;;;;;;;;;;;19.90;74.10;;;;;;5093941;28;19999;-65
2023/08/01 01:24:43;;;;;;;;;;;19.90;74.10;;;;;;5094197;28;20007;-65
2023/08/01 01:27:09;;;;;;;;;;;19.90;74.10;;;;;;5097139;28;19989;-66
2023/08/01 01:29:35;;;;;;;;;;;19.90;74.10;;;;;;5097907;28;19920;-65
2023/08/01 01:32:01;;;;;;;;;;;19.90;74.10;;;;;;5097832;28;20386;-65
2023/08/01 01:34:28;;;;;;;;;;;19.90;74.10;;;;;;5097381;28;19923;-70
2023/08/01 01:36:53;;;;;;;;;;;19.90;74.10;;;;;;5097744;28;19965;-65
2023/08/01 01:39:19;;;;;;;;;;;19.90;74.10;;;;;;5115870;28;20366;-65
2023/08/01 01:41:44;;;;;;;;;;;19.90;74.10;;;;;;5115689;28;20325;-65
2023/08/01 01:44:10;;;;;;;;;;;19.90;74.10;;;;;;5115600;28;19972;-65
2023/08/01 01:46:35;;;;;;;;;;;19.90;74.10;;;;;;5097348;28;19920;-65
2023/08/01 01:49:00;;;;;;;;;;;19.90;74.10;;;;;;5115413;28;19920;-70
2023/08/01 01:51:26;;;;;;;;;;;19.90;74.10;;;;;;5097626;28;19927;-65
2023/08/01 01:53:52;;;;;;;;;;;19.90;74.00;;;;;;5097121;28;19920;-65
2023/08/01 01:56:17;;;;;;;;;;;19.90;74.00;;;;;;5115543;28;19975;-65
2023/08/01 01:58:43;;;;;;;;;;;19.90;74.00;;;;;;5097069;28;20374;-65
2023/08/01 02:01:08;;;;;;;;;;;19.90;74.10;;;;;;5097317;28;20374;-65
2023/08/01 02:03:34;;;;;;;;;;;19.90;74.00;;;;;;5115158;28;20060;-65
2023/08/01 02:05:59;;;;;;;;;;;19.90;74.10;;;;;;5115387;28;20283;-65
2023/08/01 02:08:25;;;;;;;;;;;19.90;74.00;;;;;;5115221;28;19927;-65
2023/08/01 02:10:50;;;;;;;;;;;19.90;74.00;;;;;;5097046;28;20348;-65
2023/08/01 02:13:16;;;;;;;;;;;19.90;74.00;;;;;;5096871;28;19927;-66
2023/08/01 02:15:41;;;;;;;;;;;19.90;74.00;;;;;;5096699;28;19942;-66
2023/08/01 02:18:07;;;;;;;;;;;19.90;74.00;;;;;;5096701;28;19924;-66
2023/08/01 02:20:32;;;;;;;;;;;19.90;74.00;;;;;;5114806;28;19941;-65
2023/08/01 02:22:58;;;;;;;;;;;19.90;74.00;;;;;;5115040;28;19920;-65
2023/08/01 02:25:24;;;;;;;;;;;19.90;74.00;;;;;;5096866;28;19920;-65
2023/08/01 02:27:49;;;;;;;;;;;19.90;74.00;;;;;;5114756;28;19949;-65
2023/08/01 02:30:15;;;;;;;;;;;19.90;73.90;;;;;;5096723;28;19920;-65
2023/08/01 02:32:41;;;;;;;;;;;19.90;73.90;;;;;;5114749;28;19973;-65
2023/08/01 02:35:07;;;;;;;;;;;19.80;73.90;;;;;;5096275;28;19920;-65
2023/08/01 02:37:32;;;;;;;;;;;19.80;73.90;;;;;;5114825;28;19930;-65
2023/08/01 02:39:58;;;;;;;;;;;19.80;73.90;;;;;;5114639;28;20003;-65
2023/08/01 02:42:23;;;;;;;;;;;19.80;73.90;;;;;;5130367;27;19920;-65
2023/08/01 02:44:49;;;;;;;;;;;19.80;73.90;;;;;;5096382;28;19924;-65
2023/08/01 02:47:15;;;;;;;;;;;19.80;73.90;;;;;;5130543;27;19920;-65
2023/08/01 02:49:40;;;;;;;;;;;19.80;73.80;;;;;;5114375;28;20031;-65
2023/08/01 02:52:06;;;;;;;;;;;19.90;73.90;;;;;;5095973;28;19927;-65
2023/08/01 02:54:31;;;;;;;;;;;19.80;73.80;;;;;;5096255;28;19981;-66
2023/08/01 02:56:57;;;;;;;;;;;19.80;73.80;;;;;;5095922;28;19920;-65
2023/08/01 02:59:22;;;;;;;;;;;19.80;73.80;;;;;;5095864;28;19935;-65
2023/08/01 03:01:48;;;;;;;;;;;19.80;73.90;;;;;;5096002;28;20435;-65
2023/08/01 03:04:14;;;;;;;;;;;19.90;73.90;;;;;;5114026;28;19963;-65
2023/08/01 03:06:39;;;;;;;;;;;19.80;73.80;;;;;;5095975;28;19924;-65
2023/08/01 03:09:07;;;;;;;;;;;19.80;73.80;;;;;;5096053;28;19920;-65
2023/08/01 03:11:35;;;;;;;;;;;19.80;73.80;;;;;;5095900;28;20006;-65
2023/08/01 03:14:00;;;;;;;;;;;19.80;73.80;;;;;;5095822;28;19919;-65
2023/08/01 03:16:25;;;;;;;;;;;19.80;73.80;;;;;;5095769;28;19927;-65
2023/08/01 03:18:51;;;;;;;;;;;19.80;73.80;;;;;;5095170;28;19924;-65
2023/08/01 03:21:16;;;;;;;;;;;19.80;73.80;;;;;;5113658;28;19927;-65
2023/08/01 03:23:42;;;;;;;;;;;19.80;73.80;;;;;;5095661;28;20022;-65
2023/08/01 03:26:07;;;;;;;;;;;19.80;73.80;;;;;;5113618;28;19926;-65
2023/08/01 03:28:33;;;;;;;;;;;19.80;73.80;;;;;;5094804;28;19964;-65
2023/08/01 03:30:59;;;;;;;;;;;19.80;73.70;;;;;;5113350;28;19924;-65
2023/08/01 03:33:24;;;;;;;;;;;19.80;73.70;;;;;;5095242;28;19926;-66
2023/08/01 03:35:50;;;;;;;;;;;19.80;73.70;;;;;;5113439;28;19919;-65
2023/08/01 03:38:15;;;;;;;;;;;19.80;73.80;;;;;;5094923;28;20375;-65
2023/08/01 03:40:41;;;;;;;;;;;19.70;73.70;;;;;;5095115;28;19926;-66
2023/08/01 03:43:06;;;;;;;;;;;19.80;73.70;;;;;;5095065;28;19941;-65
2023/08/01 03:45:32;;;;;;;;;;;19.80;73.80;;;;;;5095348;28;19986;-65
2023/08/01 03:47:58;;;;;;;;;;;19.80;73.70;;;;;;5094889;28;19923;-65
2023/08/01 03:50:24;;;;;;;;;;;19.70;73.70;;;;;;5095202;28;20295;-66
2023/08/01 03:52:49;;;;;;;;;;;19.80;73.70;;;;;;5113050;28;19988;-65
2023/08/01 03:55:15;;;;;;;;;;;19.70;73.70;;;;;;5095202;28;20363;-71
2023/08/01 03:57:40;;;;;;;;;;;19.70;73.70;;;;;;5112885;28;19924;-65
2023/08/01 04:00:06;;;;;;;;;;;19.70;73.70;;;;;;5113162;28;20003;-65
2023/08/01 04:02:32;;;;;;;;;;;19.70;73.70;;;;;;5113301;28;19927;-65
2023/08/01 04:04:57;;;;;;;;;;;19.70;73.60;;;;;;5095117;28;19920;-65
2023/08/01 04:07:23;;;;;;;;;;;19.70;73.70;;;;;;5129092;27;19927;-65
2023/08/01 04:09:48;;;;;;;;;;;19.70;73.70;;;;;;5094011;28;20665;-65
2023/08/01 04:12:14;;;;;;;;;;;19.70;73.60;;;;;;5112859;28;19972;-66
2023/08/01 04:14:39;;;;;;;;;;;19.70;73.70;;;;;;5094633;28;20310;-65
2023/08/01 04:17:05;;;;;;;;;;;19.70;73.60;;;;;;5094664;28;20014;-65
2023/08/01 04:19:30;;;;;;;;;;;19.80;73.70;;;;;;5094464;28;20263;-65
2023/08/01 04:21:56;;;;;;;;;;;19.70;73.60;;;;;;5094840;28;19920;-65
2023/08/01 04:24:25;;;;;;;;;;;19.70;73.60;;;;;;5094451;28;20520;-65
2023/08/01 04:26:50;;;;;;;;;;;19.70;73.60;;;;;;5094535;28;19920;-65
2023/08/01 04:29:17;;;;;;;;;;;19.70;73.60;;;;;;5094788;28;20006;-65
2023/08/01 04:31:43;;;;;;;;;;;19.70;73.50;;;;;;5112729;28;19935;-65
2023/08/01 04:34:08;;;;;;;;;;;19.70;73.50;;;;;;5094738;28;19943;-65
2023/08/01 04:36:34;;;;;;;;;;;19.70;73.50;;;;;;5112637;28;19919;-65
2023/08/01 04:38:59;;;;;;;;;;;19.70;73.50;;;;;;5112451;28;19930;-65
2023/08/01 04:41:25;;;;;;;;;;;19.70;73.50;;;;;;5094395;28;19924;-65
2023/08/01 04:43:50;;;;;;;;;;;19.70;73.50;;;;;;5112540;28;20298;-65
2023/08/01 04:46:16;;;;;;;;;;;19.70;73.50;;;;;;5094743;28;19965;-65
2023/08/01 04:48:41;;;;;;;;;;;19.70;73.40;;;;;;5112566;28;20375;-65
2023/08/01 04:51:07;;;;;;;;;;;19.70;73.40;;;;;;5112659;28;19972;-65
2023/08/01 04:53:32;;;;;;;;;;;19.70;73.40;;;;;;5112612;28;19920;-65
2023/08/01 04:55:58;;;;;;;;;;;19.70;73.40;;;;;;5112870;28;19927;-66
2023/08/01 04:58:23;;;;;;;;;;;19.70;73.40;;;;;;5094362;28;19924;-65
2023/08/01 05:00:49;;;;;;;;;;;19.70;73.40;;;;;;5095748;28;19930;-66
2023/08/01 05:03:14;;;;;;;;;;;19.70;73.40;;;;;;5116514;28;19919;-70
2023/08/01 05:05:40;;;;;;;;;;;19.60;73.30;;;;;;5132429;27;19920;-65
2023/08/01 05:08:05;;;;;;;;;;;19.60;73.30;;;;;;5116357;28;19920;-65
2023/08/01 05:10:31;;;;;;;;;;;19.60;73.30;;;;;;5097904;28;19919;-65
2023/08/01 05:12:56;;;;;;;;;;;19.60;73.30;;;;;;5097947;28;19924;-66
2023/08/01 05:15:21;;;;;;;;;;;19.70;73.30;;;;;;5098120;28;20027;-65
2023/08/01 05:17:47;;;;;;;;;;;19.70;73.30;;;;;;5094116;28;19924;-65
2023/08/01 05:20:13;;;;;;;;;;;19.60;73.30;;;;;;5095624;28;19924;-65
2023/08/01 05:22:38;;;;;;;;;;;19.60;73.30;;;;;;5094592;28;20006;-65
2023/08/01 05:25:04;;;;;;;;;;;19.70;74.10;;;;;;5094257;28;20299;-65
2023/08/01 05:27:30;;;;;;;;;;;19.60;73.20;;;;;;5095536;28;19920;-66
2023/08/01 05:29:55;;;;;;;;;;;19.70;73.30;;;;;;5128749;27;19920;-65
2023/08/01 05:32:21;;;;;;;;;;;19.60;73.20;;;;;;5095607;28;19920;-65
2023/08/01 05:34:46;;;;;;;;;;;19.60;73.20;;;;;;5095519;28;19927;-66
2023/08/01 05:37:12;;;;;;;;;;;19.60;73.20;;;;;;5095418;28;20022;-65
2023/08/01 05:39:37;;;;;;;;;;;19.60;73.20;;;;;;5093965;28;19920;-65
2023/08/01 05:42:08;;;;;;;;;;;19.60;73.20;;;;;;5093933;28;19924;-65
2023/08/01 05:44:33;;;;;;;;;;;19.60;73.20;;;;;;5095470;28;19977;-65
2023/08/01 05:46:59;;;;;;;;;;;19.60;73.20;;;;;;5095129;28;20433;-65
2023/08/01 05:49:24;;;;;;;;;;;19.60;73.20;;;;;;5095298;28;19927;-65
2023/08/01 05:51:50;;;;;;;;;;;19.60;73.20;;;;;;5093787;28;19924;-65
2023/08/01 05:54:15;;;;;;;;;;;19.70;73.20;;;;;;5094104;28;19959;-64
2023/08/01 05:56:41;;;;;;;;;;;19.60;73.10;;;;;;5093954;28;19974;-65
2023/08/01 05:59:06;;;;;;;;;;;19.60;73.10;;;;;;5093594;28;20019;-65
2023/08/01 06:01:32;;;;;;;;;;;19.60;73.10;;;;;;5093818;28;19924;-64
2023/08/01 06:03:57;;;;;;;;;;;19.60;73.20;;;;;;5093659;28;20260;-64
2023/08/01 06:06:23;;;;;;;;;;;19.60;73.10;;;;;;5093825;28;19966;-64
2023/08/01 06:08:51;;;;;;;;;;;19.60;73.10;;;;;;5094876;28;19977;-64
2023/08/01 06:11:17;;;;;;;;;;;19.60;73.10;;;;;;5094472;28;19962;-69
2023/08/01 06:13:42;;;;;;;;;;;19.60;73.10;;;;;;5093644;28;19984;-65
2023/08/01 06:16:08;;;;;;;;;;;19.60;73.10;;;;;;5094837;28;19927;-64
2023/08/01 06:18:33;;;;;;;;;;;19.60;73.10;;;;;;5092972;28;19970;-64
2023/08/01 06:20:59;;;;;;;;;;;19.60;73.10;;;;;;5094611;28;19924;-64
2023/08/01 06:23:24;;;;;;;;;;;19.60;73.10;;;;;;5093168;28;20012;-65
2023/08/01 06:25:50;;;;;;;;;;;19.60;73.10;;;;;;5093476;28;19920;-65
2023/08/01 06:28:15;;;;;;;;;;;19.60;73.10;;;;;;5094296;28;19920;-65
2023/08/01 06:30:41;;;;;;;;;;;19.60;73.10;;;;;;5093139;28;19920;-65
2023/08/01 06:33:06;;;;;;;;;;;19.60;73.10;;;;;;5093026;28;20330;-64
2023/08/01 06:35:32;;;;;;;;;;;19.60;73.10;;;;;;5094315;28;20015;-65
2023/08/01 06:37:57;;;;;;;;;;;19.60;73.10;;;;;;5094199;28;20294;-65
2023/08/01 06:40:23;;;;;;;;;;;19.60;73.00;;;;;;5093167;28;19927;-66
2023/08/01 06:42:48;;;;;;;;;;;19.60;73.00;;;;;;5093119;28;20265;-65
2023/08/01 06:45:14;;;;;;;;;;;19.60;73.00;;;;;;5092146;28;19920;-66
2023/08/01 06:47:39;;;;;;;;;;;19.60;73.00;;;;;;5092572;28;20387;-65
2023/08/01 06:50:06;;;;;;;;;;;19.60;73.00;;;;;;5093981;28;19981;-65
2023/08/01 06:52:31;;;;;;;;;;;19.60;73.00;;;;;;5093986;28;20359;-65
2023/08/01 06:54:57;;;;;;;;;;;19.60;73.00;;;;;;5092551;28;19963;-65
2023/08/01 06:57:22;;;;;;;;;;;19.60;73.00;;;;;;5092862;28;19920;-65
2023/08/01 06:59:48;;;;;;;;;;;19.60;73.00;;;;;;5092303;28;19928;-65
2023/08/01 07:02:13;;;;;;;;;;;19.60;73.00;;;;;;5092722;28;19955;-65
2023/08/01 07:04:39;;;;;;;;;;;19.60;73.00;;;;;;5093610;28;19928;-65
2023/08/01 07:07:04;;;;;;;;;;;19.60;73.00;;;;;;5092565;28;19920;-65
2023/08/01 07:09:30;;;;;;;;;;;19.60;73.00;;;;;;5088759;28;19924;-65
2023/08/01 07:11:55;;;;;;;;;;;19.60;72.90;;;;;;5092590;28;19985;-66
2023/08/01 07:14:21;;;;;;;;;;;19.60;73.00;;;;;;5092124;28;20329;-65
2023/08/01 07:16:46;;;;;;;;;;;19.60;72.90;;;;;;5092485;28;19921;-65
2023/08/01 07:19:12;;;;;;;;;;;19.60;72.90;;;;;;5110434;28;19931;-65
2023/08/01 07:21:37;;;;;;;;;;;19.60;72.90;;;;;;5095523;28;20294;-65
2023/08/01 07:24:03;;;;;;;;;;;19.60;72.90;;;;;;5112950;28;19964;-65
2023/08/01 07:26:29;;;;;;;;;;;19.60;72.90;;;;;;5113724;28;19999;-66
2023/08/01 07:28:55;;;;;;;;;;;19.60;72.90;;;;;;5095582;28;20001;-65
2023/08/01 07:31:21;;;;;;;;;;;19.60;72.90;;;;;;5113546;28;20384;-65
2023/08/01 07:33:46;;;;;;;;;;;19.60;72.80;;;;;;5113489;28;20014;-65
2023/08/01 07:36:12;;;;;;;;;;;19.60;72.80;;;;;;5093514;28;19920;-66
2023/08/01 07:38:37;;;;;;;;;;;19.60;72.80;;;;;;5077069;28;19924;-65
2023/08/01 07:43:38;;;;;;;;;;;19.60;72.80;;;;;;4866410;26;20323;-65
2023/08/01 07:46:04;;;;;;;;;;;19.60;72.80;;;;;;5027297;28;19970;-65
2023/08/01 07:53:45;;;;;;;;;;;19.70;72.80;;;;;;5744872;22;19971;-88
2023/08/01 07:56:11;;;;;;;;;;;19.60;72.70;;;;;;5055284;28;19920;-88
2023/08/01 07:58:36;;;;;;;;;;;19.60;72.70;;;;;;5047365;22;19925;-69
2023/08/01 08:01:04;;;;;;;;;;;19.60;72.70;;;;;;5043737;28;19921;-66
2023/08/01 08:03:29;;;;;;;;;;;19.60;72.70;;;;;;5014905;28;20004;-66
2023/08/01 08:05:58;;;;;;;;;;;19.60;72.70;;;;;;5015182;28;20398;-66
2023/08/01 08:08:24;;;;;;;;;;;19.60;72.70;;;;;;5014884;28;19956;-65
2023/08/01 08:10:52;;;;;;;;;;;19.60;72.70;;;;;;5031505;28;19921;-64
2023/08/01 08:13:17;;;;;;;;;;;19.60;72.70;;;;;;5014709;28;19929;-66
2023/08/01 08:15:43;;;;;;;;;;;19.60;72.70;;;;;;5031450;28;20105;-66
2023/08/01 08:18:09;;;;;;;;;;;19.60;72.70;;;;;;5031523;28;19925;-65
2023/08/01 08:20:41;;;;;;;;;;;19.60;72.70;;;;;;5032332;28;19944;-68
2023/08/01 08:31:15;;;;;;;;;;;19.60;72.70;;;;;;5072822;22;20384;-65
2023/08/01 08:33:40;;;;;;;;;;;19.60;72.70;;;;;;5014101;28;20007;-65
2023/08/01 08:36:06;;;;;;;;;;;19.60;72.70;;;;;;5017430;28;19921;-65
2023/08/01 08:38:31;;;;;;;;;;;19.60;72.70;;;;;;5018018;28;19921;-65
2023/08/01 08:41:17;;;;;;;;;;;19.60;72.70;;;;;;5018136;28;19931;-64
2023/08/01 09:20:05;;;;;;;;;;;19.60;72.70;;;;;;5069151;22;20043;-65
2023/08/01 09:22:19;;;;;;;;;;;19.60;72.70;;;;;;5031248;28;20468;-72
2023/08/01 09:24:52;;;;;;;;;;;19.60;72.60;;;;;;5037025;28;19968;-73
2023/08/01 09:27:18;;;;;;;;;;;19.60;72.60;;;;;;5036941;28;19921;-72
2023/08/01 09:29:43;;;;;;;;;;;19.60;72.70;;;;;;5037103;28;20291;-65
2023/08/01 09:32:13;;;;;;;;;;;19.60;72.70;;;;;;5037162;28;19943;-64
2023/08/01 09:34:39;;;;;;;;;;;19.60;72.60;;;;;;5036660;28;19921;-64
2023/08/01 09:37:05;;;;;;;;;;;19.60;72.70;;;;;;5036995;28;20338;-65
2023/08/01 09:39:30;;;;;;;;;;;19.60;72.70;;;;;;5036506;28;20383;-64
2023/08/01 09:54:58;;;;;;;;;;;19.60;72.60;;;;;;5068931;28;19919;-70
2023/08/01 09:57:28;;;;;;;;;;;19.50;72.50;;;;;;5067692;28;19921;-64
2023/08/01 09:59:53;;;;;;;;;;;19.60;72.60;;;;;;5067895;28;20223;-64
2023/08/01 10:02:21;;;;;;;;;;;19.60;72.60;;;;;;5067137;28;20306;-71
2023/08/01 10:04:47;;;;;;;;;;;19.60;72.60;;;;;;5067072;28;19967;-64
2023/08/01 10:07:13;;;;;;;;;;;19.60;72.60;;;;;;5067601;28;19974;-65
2023/08/01 10:09:39;;;;;;;;;;;19.50;72.50;;;;;;5061608;28;19928;-64
2023/08/01 10:12:30;;;;;;;;;;;19.60;72.60;;;;;;5079883;23;19925;-94
2023/08/01 10:14:56;;;;;;;;;;;19.50;72.60;;;;;;5019088;28;19926;-65
2023/08/01 10:17:24;;;;;;;;;;;19.50;72.60;;;;;;4989716;28;19922;-65
2023/08/01 10:19:51;;;;;;;;;;;19.50;72.60;;;;;;4989374;28;20290;-64
2023/08/01 10:22:17;;;;;;;;;;;19.50;72.60;;;;;;4988379;28;19922;-70
2023/08/01 10:24:42;;;;;;;;;;;19.60;72.70;;;;;;4988262;28;20403;-72
2023/08/01 10:27:18;;;;;;;;;;;19.60;72.60;;;;;;4988464;28;20008;-72
2023/08/01 10:29:44;;;;;;;;;;;19.60;72.60;;;;;;5023100;23;19948;-93
2023/08/01 10:32:09;;;;;;;;;;;19.60;72.60;;;;;;5004417;28;19922;-90
2023/08/01 10:34:35;;;;;;;;;;;19.60;72.60;;;;;;5011464;28;20426;-93
2023/08/01 10:37:01;;;;;;;;;;;19.60;72.60;;;;;;5011708;28;19921;-95
2023/08/01 10:39:27;;;;;;;;;;;19.60;72.60;;;;;;4999665;28;20372;-90
2023/08/01 10:42:01;;;;;;;;;;;19.60;72.60;;;;;;5011456;28;19921;-90
2023/08/01 10:44:27;;;;;;;;;;;19.60;72.50;;;;;;5011400;28;20011;-93
2023/08/01 10:49:33;;;;;;;;;;;19.70;72.50;;;;;;5109388;27;19912;-65
2023/08/01 10:51:59;;;;;;;;;;;19.60;72.40;;;;;;5107821;28;19970;-70
2023/08/01 10:54:25;;;;;;;;;;;19.60;72.40;;;;;;5108170;28;19974;-65
2023/08/01 10:56:53;;;;;;;;;;;19.60;73.00;;;;;;5108310;28;20114;-65
2023/08/01 10:59:19;;;;;;;;;;;19.60;72.30;;;;;;5108299;28;20454;-70
2023/08/01 11:01:46;;;;;;;;;;;19.60;72.30;;;;;;5103619;28;19920;-64
2023/08/01 11:04:15;;;;;;;;;;;19.60;72.30;;;;;;5099559;28;19959;-65
2023/08/01 11:06:48;;;;;;;;;;;19.60;72.30;;;;;;5110204;28;19966;-65
2023/08/01 11:09:18;;;;;;;;;;;19.70;72.40;;;;;;5109878;28;19967;-64
2023/08/01 11:11:44;;;;;;;;;;;19.70;72.40;;;;;;5109804;28;19924;-64
2023/08/01 11:14:11;;;;;;;;;;;19.60;72.40;;;;;;5110113;28;19920;-65
2023/08/01 11:16:37;;;;;;;;;;;19.60;72.40;;;;;;5109726;28;20385;-66
2023/08/01 11:19:02;;;;;;;;;;;19.60;72.40;;;;;;5109060;28;20251;-64
2023/08/01 11:21:28;;;;;;;;;;;19.70;72.50;;;;;;5108431;28;19965;-65
2023/08/01 11:23:53;;;;;;;;;;;19.60;72.40;;;;;;5108577;28;19920;-65
2023/08/01 11:26:19;;;;;;;;;;;19.70;72.50;;;;;;5108646;28;20023;-65
2023/08/01 11:28:45;;;;;;;;;;;19.70;72.40;;;;;;5108106;28;19928;-65
2023/08/01 11:31:12;;;;;;;;;;;19.60;72.30;;;;;;5109829;28;19982;-65
2023/08/01 11:33:37;;;;;;;;;;;19.60;72.30;;;;;;5109771;28;19920;-65
2023/08/01 11:36:03;;;;;;;;;;;19.60;72.30;;;;;;5108469;28;19923;-65
2023/08/01 11:38:30;;;;;;;;;;;19.60;72.30;;;;;;5108137;28;19927;-65
2023/08/01 11:40:57;;;;;;;;;;;19.70;72.30;;;;;;5109793;28;19920;-66
2023/08/01 11:43:22;;;;;;;;;;;19.70;72.30;;;;;;5109472;28;19920;-65
2023/08/01 11:45:49;;;;;;;;;;;19.70;72.30;;;;;;5108342;28;20366;-65
2023/08/01 11:48:14;;;;;;;;;;;19.70;72.30;;;;;;5119164;28;20328;-65
2023/08/01 11:50:40;;;;;;;;;;;19.60;72.20;;;;;;5111601;28;19919;-66
2023/08/01 11:53:05;;;;;;;;;;;19.70;73.00;;;;;;5111424;28;20018;-66
2023/08/01 11:55:34;;;;;;;;;;;19.60;72.20;;;;;;5111252;28;20297;-65
2023/08/01 11:58:00;;;;;;;;;;;19.70;72.30;;;;;;5129365;28;20001;-65
2023/08/01 12:00:26;;;;;;;;;;;19.70;72.30;;;;;;5100652;28;19982;-66
2023/08/01 12:03:02;;;;;;;;;;;19.70;72.20;;;;;;5097812;28;20263;-66
2023/08/01 12:05:28;;;;;;;;;;;19.70;72.20;;;;;;5131962;27;19919;-67
2023/08/01 12:07:53;;;;;;;;;;;19.70;72.30;;;;;;5114557;28;19969;-66
2023/08/01 12:10:19;;;;;;;;;;;19.70;72.80;;;;;;5115537;28;19972;-66
2023/08/01 12:12:46;;;;;;;;;;;19.70;73.00;;;;;;5097558;28;20262;-66
2023/08/01 12:15:13;;;;;;;;;;;19.80;73.10;;;;;;5097250;28;19926;-66
2023/08/01 12:17:38;;;;;;;;;;;19.80;73.00;;;;;;5097551;28;19920;-66
2023/08/01 12:20:04;;;;;;;;;;;19.80;73.00;;;;;;5131552;27;19926;-69
2023/08/01 12:22:30;;;;;;;;;;;19.80;72.90;;;;;;5130111;27;19920;-65
2023/08/01 12:24:55;;;;;;;;;;;19.70;72.90;;;;;;5088194;28;19919;-66
2023/08/01 12:27:21;;;;;;;;;;;19.80;72.70;;;;;;5107134;28;19920;-66
2023/08/01 12:29:46;;;;;;;;;;;19.80;72.80;;;;;;5077120;28;20378;-66
2023/08/01 12:32:13;;;;;;;;;;;19.70;72.80;;;;;;5076927;28;19920;-71
2023/08/01 12:34:39;;;;;;;;;;;19.80;73.10;;;;;;5098153;28;19920;-66
2023/08/01 12:37:05;;;;;;;;;;;19.80;73.20;;;;;;5102480;28;19942;-66
2023/08/01 12:39:30;;;;;;;;;;;19.80;73.20;;;;;;5105652;28;19924;-65
2023/08/01 12:41:56;;;;;;;;;;;19.80;73.20;;;;;;5086803;28;19926;-65
2023/08/01 12:44:21;;;;;;;;;;;19.80;73.10;;;;;;5097613;28;19990;-65
2023/08/01 12:46:47;;;;;;;;;;;19.80;72.90;;;;;;5110542;28;20006;-66
2023/08/01 12:49:12;;;;;;;;;;;19.80;72.90;;;;;;5078625;28;19950;-66
2023/08/01 12:51:38;;;;;;;;;;;19.80;73.80;;;;;;5083612;28;19920;-71
2023/08/01 12:54:04;;;;;;;;;;;19.80;72.90;;;;;;5088292;28;19927;-65
2023/08/01 12:56:29;;;;;;;;;;;19.80;73.10;;;;;;5099525;28;19943;-74
2023/08/01 12:58:55;;;;;;;;;;;19.80;73.00;;;;;;5113211;28;19920;-66
2023/08/01 13:01:20;;;;;;;;;;;19.80;72.90;;;;;;5113590;28;19926;-65
2023/08/01 13:03:46;;;;;;;;;;;19.80;73.00;;;;;;5114656;28;19959;-65
2023/08/01 13:06:13;;;;;;;;;;;19.80;72.90;;;;;;5096522;28;19920;-65
2023/08/01 13:08:38;;;;;;;;;;;19.80;72.90;;;;;;5096145;28;20014;-66
2023/08/01 13:11:12;;;;;;;;;;;19.80;72.90;;;;;;5113505;28;19959;-65
2023/08/01 13:13:38;;;;;;;;;;;19.70;72.80;;;;;;5095968;28;20370;-65
2023/08/01 13:16:04;;;;;;;;;;;19.70;72.80;;;;;;5130451;27;19926;-65
2023/08/01 13:18:29;;;;;;;;;;;19.70;72.80;;;;;;5114289;28;20135;-65
2023/08/01 13:20:56;;;;;;;;;;;19.70;72.80;;;;;;5096269;28;20010;-65
2023/08/01 13:23:22;;;;;;;;;;;19.80;72.90;;;;;;5114176;28;19919;-66
2023/08/01 13:25:48;;;;;;;;;;;19.70;72.80;;;;;;5096150;28;19926;-66
2023/08/01 13:28:14;;;;;;;;;;;19.70;72.80;;;;;;5129812;27;20389;-65
2023/08/01 13:30:39;;;;;;;;;;;19.80;72.80;;;;;;5114270;28;19927;-65
2023/08/01 13:33:04;;;;;;;;;;;19.70;73.50;;;;;;5095706;28;20010;-65
2023/08/01 13:35:30;;;;;;;;;;;19.70;72.70;;;;;;5095954;28;19920;-65
2023/08/01 13:37:55;;;;;;;;;;;19.70;72.70;;;;;;5095741;28;19927;-65
2023/08/01 13:40:21;;;;;;;;;;;19.80;72.80;;;;;;5096115;28;20010;-66
2023/08/01 13:42:46;;;;;;;;;;;19.70;72.70;;;;;;5095418;28;19920;-65
2023/08/01 13:45:12;;;;;;;;;;;19.80;72.70;;;;;;5095401;28;19965;-65
2023/08/01 13:47:37;;;;;;;;;;;19.70;72.70;;;;;;5129159;27;20286;-65
2023/08/01 13:50:03;;;;;;;;;;;19.80;72.70;;;;;;5095446;28;20018;-65
2023/08/01 13:52:28;;;;;;;;;;;19.70;72.60;;;;;;5095590;28;19919;-65
2023/08/01 13:54:54;;;;;;;;;;;19.70;72.70;;;;;;5129754;27;20373;-65
2023/08/01 13:57:20;;;;;;;;;;;19.80;72.70;;;;;;5095213;28;19924;-64
2023/08/01 13:59:45;;;;;;;;;;;19.70;72.60;;;;;;5113432;28;19954;-65
2023/08/01 14:02:11;;;;;;;;;;;19.70;72.60;;;;;;5095001;28;19965;-65
2023/08/01 14:04:36;;;;;;;;;;;19.70;72.60;;;;;;5095386;28;19919;-67
2023/08/01 14:07:02;;;;;;;;;;;19.70;72.60;;;;;;5112711;28;19919;-65
2023/08/01 14:09:29;;;;;;;;;;;19.70;72.60;;;;;;5113062;28;20369;-65
2023/08/01 14:11:54;;;;;;;;;;;19.70;72.60;;;;;;5095014;28;19926;-65
2023/08/01 14:14:19;;;;;;;;;;;19.70;72.60;;;;;;5095158;28;19923;-65
2023/08/01 14:16:45;;;;;;;;;;;19.70;72.60;;;;;;5094424;28;19920;-66
2023/08/01 14:19:10;;;;;;;;;;;19.80;72.60;;;;;;5113544;28;20018;-66
2023/08/01 14:21:36;;;;;;;;;;;19.70;72.50;;;;;;5094836;28;20440;-65
2023/08/01 14:24:01;;;;;;;;;;;19.70;72.50;;;;;;5094837;28;19924;-65
2023/08/01 14:26:27;;;;;;;;;;;19.80;72.60;;;;;;5095055;28;20487;-66
2023/08/01 14:28:52;;;;;;;;;;;19.70;72.50;;;;;;5094566;28;19927;-70
2023/08/01 14:31:18;;;;;;;;;;;19.80;72.60;;;;;;5112938;28;19927;-66
2023/08/01 14:33:43;;;;;;;;;;;19.80;72.50;;;;;;5094978;28;20023;-65
2023/08/01 14:36:09;;;;;;;;;;;19.80;72.50;;;;;;5112924;28;19920;-65
2023/08/01 14:38:35;;;;;;;;;;;19.70;72.50;;;;;;5112956;28;19927;-66
2023/08/01 14:41:01;;;;;;;;;;;19.80;72.50;;;;;;5094963;28;19927;-65
2023/08/01 14:43:27;;;;;;;;;;;19.80;72.50;;;;;;5094793;28;19919;-65
2023/08/01 14:45:52;;;;;;;;;;;19.80;72.50;;;;;;5094847;28;20024;-65
2023/08/01 14:48:20;;;;;;;;;;;19.80;72.50;;;;;;5094175;28;19923;-66
2023/08/01 14:50:45;;;;;;;;;;;19.70;72.50;;;;;;5094902;28;19927;-65
2023/08/01 14:53:11;;;;;;;;;;;19.80;72.50;;;;;;5094431;28;20323;-65
2023/08/01 14:55:36;;;;;;;;;;;19.80;72.50;;;;;;5094715;28;19919;-66
2023/08/01 14:58:02;;;;;;;;;;;19.80;72.50;;;;;;5112657;28;19920;-66
2023/08/01 15:00:28;;;;;;;;;;;19.80;72.50;;;;;;5094711;28;19959;-66
2023/08/01 15:02:53;;;;;;;;;;;19.80;72.50;;;;;;5112586;28;20449;-66
2023/08/01 15:05:19;;;;;;;;;;;19.80;72.50;;;;;;5112782;28;19919;-66
2023/08/01 15:07:44;;;;;;;;;;;19.80;72.50;;;;;;5112756;28;19927;-66
2023/08/01 15:10:11;;;;;;;;;;;19.80;72.50;;;;;;5112670;28;19926;-65
2023/08/01 15:12:36;;;;;;;;;;;19.80;72.50;;;;;;5094610;28;19920;-66
2023/08/01 15:15:02;;;;;;;;;;;19.80;72.40;;;;;;5094560;28;19926;-66
2023/08/01 15:17:27;;;;;;;;;;;19.80;72.50;;;;;;5094553;28;19920;-66